Time;durP1;ratioP1;P1;durP2;ratioP2;P2;SDS_P1;SDS_P2;PMS_P1;PMS_P2;Temp;Humidity;BMP_temperature;BMP_pressure;BME280_temperature;BME280_humidity;BME280_pressure;Samples;Min_cycle;Max_cycle;Signal;HPM_P1;HPM_P2
2024/01/07 00:02:28;;;;;;;;;;;6.20;1.00;;;;;;5015896;28;19944;-79
2024/01/07 00:04:54;;;;;;;;;;;6.30;1.00;;;;;;5034782;28;19905;-79
2024/01/07 00:07:22;;;;;;;;;;;6.30;1.00;;;;;;5028757;28;19909;-78
2024/01/07 00:09:52;;;;;;;;;;;6.20;1.00;;;;;;5024145;28;19949;-78
2024/01/07 00:12:18;;;;;;;;;;;6.20;1.00;;;;;;5022298;28;19905;-79
2024/01/07 00:14:46;;;;;;;;;;;6.20;1.00;;;;;;5027168;28;20277;-77
2024/01/07 00:17:12;;;;;;;;;;;6.30;1.00;;;;;;5014607;28;19909;-77
2024/01/07 00:19:58;;;;;;;;;;;6.30;1.00;;;;;;5024828;28;19909;-76
2024/01/07 00:22:28;;;;;;;;;;;6.20;1.00;;;;;;5016751;28;19909;-77
2024/01/07 00:24:58;;;;;;;;;;;6.20;1.00;;;;;;5029683;28;19913;-77
2024/01/07 00:27:28;;;;;;;;;;;6.20;1.00;;;;;;5028110;28;20424;-77
2024/01/07 00:29:58;;;;;;;;;;;6.10;1.00;;;;;;5022933;28;19916;-77
2024/01/07 00:32:34;;;;;;;;;;;6.10;1.00;;;;;;5025596;28;19905;-77
2024/01/07 00:35:04;;;;;;;;;;;6.10;1.00;;;;;;5014320;28;20546;-76
2024/01/07 00:37:52;;;;;;;;;;;6.10;1.00;;;;;;5020201;28;19959;-77
2024/01/07 00:40:18;;;;;;;;;;;6.20;1.00;;;;;;5016297;28;19909;-76
2024/01/07 00:42:58;;;;;;;;;;;6.20;1.00;;;;;;5024198;28;19967;-77
2024/01/07 00:45:34;;;;;;;;;;;6.10;1.00;;;;;;5020297;28;19906;-78
2024/01/07 00:48:16;;;;;;;;;;;6.10;1.00;;;;;;5019563;28;19909;-78
2024/01/07 00:50:46;;;;;;;;;;;6.20;1.00;;;;;;5025635;28;19958;-78
2024/01/07 00:53:22;;;;;;;;;;;6.10;1.00;;;;;;5032736;28;19963;-78
2024/01/07 00:55:52;;;;;;;;;;;6.20;1.00;;;;;;5022777;28;19906;-78
2024/01/07 00:58:28;;;;;;;;;;;6.10;1.00;;;;;;5027755;28;19905;-78
2024/01/07 01:00:59;;;;;;;;;;;6.20;1.00;;;;;;5015261;28;19906;-78
2024/01/07 01:03:25;;;;;;;;;;;6.20;1.00;;;;;;5029821;28;19913;-78
2024/01/07 01:05:51;;;;;;;;;;;6.20;1.00;;;;;;5017827;28;19913;-78
2024/01/07 01:08:17;;;;;;;;;;;6.10;1.00;;;;;;5017821;28;19914;-78
2024/01/07 01:10:46;;;;;;;;;;;8.50;1.00;;;;;;5028165;28;19909;-78
2024/01/07 01:13:16;;;;;;;;;;;6.10;1.00;;;;;;5029007;28;20009;-77
2024/01/07 01:15:46;;;;;;;;;;;6.10;1.00;;;;;;5031480;28;19999;-78
2024/01/07 01:18:28;;;;;;;;;;;;;;;;;;5026959;28;19909;-79
2024/01/07 01:21:28;;;;;;;;;;;6.10;1.00;;;;;;5023296;28;19915;-79
2024/01/07 01:23:54;;;;;;;;;;;6.10;1.00;;;;;;5021573;28;19967;-79
2024/01/07 01:26:22;;;;;;;;;;;6.10;1.00;;;;;;5027375;28;19905;-79
2024/01/07 01:28:52;;;;;;;;;;;6.10;1.00;;;;;;5039953;28;19911;-78
2024/01/07 01:31:22;;;;;;;;;;;6.00;1.00;;;;;;5032229;28;19909;-78
2024/01/07 01:33:58;;;;;;;;;;;5.90;1.00;;;;;;5024198;28;19955;-78
2024/01/07 01:36:30;;;;;;;;;;;5.90;1.00;;;;;;5032636;28;19910;-78
2024/01/07 01:39:16;;;;;;;;;;;5.90;1.00;;;;;;5018397;28;19905;-78
2024/01/07 01:41:42;;;;;;;;;;;5.90;1.00;;;;;;5033879;28;19917;-79
2024/01/07 01:44:08;;;;;;;;;;;5.90;1.00;;;;;;5019549;28;19913;-77
2024/01/07 01:46:40;;;;;;;;;;;5.90;1.00;;;;;;5020977;28;20007;-77
2024/01/07 01:49:11;;;;;;;;;;;5.80;1.00;;;;;;5032688;28;19905;-77
2024/01/07 01:51:46;;;;;;;;;;;5.80;1.00;;;;;;5037081;28;19905;-77
2024/01/07 01:54:16;;;;;;;;;;;5.80;1.00;;;;;;5030763;28;20288;-77
2024/01/07 01:56:42;;;;;;;;;;;5.80;1.00;;;;;;5024592;28;20299;-77
2024/01/07 01:59:40;;;;;;;;;;;5.80;1.00;;;;;;5019334;28;20012;-78
2024/01/07 02:02:16;;;;;;;;;;;5.80;1.00;;;;;;5016000;28;19955;-78
2024/01/07 02:04:46;;;;;;;;;;;5.80;1.00;;;;;;5022130;28;19916;-78
2024/01/07 02:07:16;;;;;;;;;;;5.80;1.00;;;;;;5032557;28;19913;-79
2024/01/07 02:09:42;;;;;;;;;;;;;;;;;;5026046;28;20299;-78
2024/01/07 02:12:16;;;;;;;;;;;5.80;1.00;;;;;;5033507;28;19916;-78
2024/01/07 02:14:46;;;;;;;;;;;5.90;1.00;;;;;;5030060;28;19996;-77
2024/01/07 02:17:22;;;;;;;;;;;5.90;1.00;;;;;;5025634;28;19916;-77
2024/01/07 02:19:52;;;;;;;;;;;5.90;1.00;;;;;;5027818;28;19910;-77
2024/01/07 02:22:18;;;;;;;;;;;5.90;1.00;;;;;;5030130;28;19914;-77
2024/01/07 02:25:04;;;;;;;;;;;5.80;1.00;;;;;;5022434;28;19916;-76
2024/01/07 02:30:46;;;;;;;;;;;5.80;1.00;;;;;;5031272;28;19916;-79
2024/01/07 02:33:12;;;;;;;;;;;5.80;1.00;;;;;;5023441;28;19916;-79
2024/01/07 02:35:40;;;;;;;;;;;5.90;1.00;;;;;;5016833;28;19905;-79
2024/01/07 02:38:16;;;;;;;;;;;5.90;1.00;;;;;;5021310;28;19940;-79
2024/01/07 02:40:58;;;;;;;;;;;5.90;1.00;;;;;;5027337;28;20352;-79
2024/01/07 02:43:24;;;;;;;;;;;6.00;1.00;;;;;;5016597;28;19909;-79
2024/01/07 02:45:58;;;;;;;;;;;6.00;1.00;;;;;;5028166;28;19931;-77
2024/01/07 02:48:34;;;;;;;;;;;6.00;1.00;;;;;;5019507;28;19941;-76
2024/01/07 02:51:10;;;;;;;;;;;6.00;1.00;;;;;;5031869;28;19952;-77
2024/01/07 02:53:36;;;;;;;;;;;6.00;1.00;;;;;;5015205;28;19905;-77
2024/01/07 02:56:10;;;;;;;;;;;5.90;1.00;;;;;;5029771;28;19909;-77
2024/01/07 02:58:40;;;;;;;;;;;5.90;1.00;;;;;;5032128;28;19930;-77
2024/01/07 03:01:40;;;;;;;;;;;5.80;1.00;;;;;;5020326;28;19913;-79
2024/01/07 03:04:16;;;;;;;;;;;5.80;1.00;;;;;;5026669;28;20388;-79
2024/01/07 03:06:58;;;;;;;;;;;5.80;1.00;;;;;;5024222;28;19909;-79
2024/01/07 03:09:28;;;;;;;;;;;5.80;1.00;;;;;;5022131;28;19913;-79
2024/01/07 03:11:58;;;;;;;;;;;5.80;1.00;;;;;;5033215;28;19915;-79
2024/01/07 03:14:46;;;;;;;;;;;5.80;1.00;;;;;;5019751;28;20004;-77
2024/01/07 03:17:28;;;;;;;;;;;5.80;1.00;;;;;;5029195;28;19920;-76
2024/01/07 03:19:58;;;;;;;;;;;5.90;1.00;;;;;;5026034;28;19968;-77
2024/01/07 03:22:29;;;;;;;;;;;5.90;1.00;;;;;;5019817;28;19913;-77
2024/01/07 03:24:58;;;;;;;;;;;5.90;1.00;;;;;;5022399;28;19910;-77
2024/01/07 03:27:24;;;;;;;;;;;5.90;1.00;;;;;;5031895;28;19909;-76
2024/01/07 03:32:52;;;;;;;;;;;5.90;1.00;;;;;;5025159;28;19916;-79
2024/01/07 03:35:24;;;;;;;;;;;5.90;1.00;;;;;;5022228;28;19909;-78
2024/01/07 03:37:58;;;;;;;;;;;5.90;1.00;;;;;;5025184;28;19959;-79
2024/01/07 03:40:28;;;;;;;;;;;5.90;1.00;;;;;;5020984;28;19910;-78
2024/01/07 03:42:54;;;;;;;;;;;5.90;1.00;;;;;;5035077;28;19909;-79
2024/01/07 03:45:52;;;;;;;;;;;5.90;1.00;;;;;;5029096;28;19928;-76
2024/01/07 03:48:28;;;;;;;;;;;5.80;1.00;;;;;;5015612;28;19905;-76
2024/01/07 03:50:58;;;;;;;;;;;5.80;1.00;;;;;;5021693;28;19916;-77
2024/01/07 03:53:24;;;;;;;;;;;5.70;1.00;;;;;;5033569;28;19943;-77
2024/01/07 03:55:58;;;;;;;;;;;5.70;1.00;;;;;;5034564;28;19948;-77
2024/01/07 03:58:28;;;;;;;;;;;5.70;1.00;;;;;;5026849;28;19909;-76
2024/01/07 04:01:15;;;;;;;;;;;5.70;1.00;;;;;;5014804;28;19905;-79
2024/01/07 04:03:41;;;;;;;;;;;5.70;1.00;;;;;;5024828;28;19909;-79
2024/01/07 04:06:28;;;;;;;;;;;5.60;1.00;;;;;;5031805;28;19915;-80
2024/01/07 04:08:58;;;;;;;;;;;5.60;1.00;;;;;;5022846;28;19913;-79
2024/01/07 04:11:28;;;;;;;;;;;5.60;1.00;;;;;;5021724;28;19916;-79
2024/01/07 04:13:58;;;;;;;;;;;5.50;1.00;;;;;;5021633;28;19909;-78
2024/01/07 04:16:28;;;;;;;;;;;5.50;1.00;;;;;;5016188;28;19960;-79
2024/01/07 04:18:54;;;;;;;;;;;5.50;1.00;;;;;;5021313;28;19905;-79
2024/01/07 04:21:22;;;;;;;;;;;5.50;1.00;;;;;;5032221;28;19913;-79
2024/01/07 04:23:58;;;;;;;;;;;5.50;1.00;;;;;;5019954;28;19909;-79
2024/01/07 04:26:28;;;;;;;;;;;5.50;1.00;;;;;;5015112;28;19909;-79
2024/01/07 04:28:54;;;;;;;;;;;5.50;1.00;;;;;;5022905;28;20034;-78
2024/01/07 04:31:22;;;;;;;;;;;5.40;1.00;;;;;;5025853;28;19952;-78
2024/01/07 04:33:58;;;;;;;;;;;5.40;1.00;;;;;;5025477;28;20012;-79
2024/01/07 04:36:29;;;;;;;;;;;5.40;1.00;;;;;;5026425;28;19905;-79
2024/01/07 04:38:58;;;;;;;;;;;5.40;1.00;;;;;;5030504;28;19909;-79
2024/01/07 04:41:28;;;;;;;;;;;5.50;1.00;;;;;;5021279;28;19949;-79
2024/01/07 04:43:58;;;;;;;;;;;5.50;1.00;;;;;;5015449;28;19948;-78
2024/01/07 04:46:28;;;;;;;;;;;5.60;1.00;;;;;;5020979;28;20415;-77
2024/01/07 04:49:10;;;;;;;;;;;5.70;1.00;;;;;;5022553;28;19905;-76
2024/01/07 04:51:36;;;;;;;;;;;5.60;1.00;;;;;;5027222;28;19904;-77
2024/01/07 04:54:16;;;;;;;;;;;5.60;1.00;;;;;;5023098;28;19943;-76
2024/01/07 04:56:46;;;;;;;;;;;5.60;1.00;;;;;;5024300;28;19955;-77
2024/01/07 04:59:16;;;;;;;;;;;5.60;1.00;;;;;;5017148;28;19909;-77
2024/01/07 05:02:10;;;;;;;;;;;5.60;1.00;;;;;;5026593;28;19909;-78
2024/01/07 05:04:36;;;;;;;;;;;5.60;1.00;;;;;;5025927;28;19935;-79
2024/01/07 05:07:10;;;;;;;;;;;5.60;1.00;;;;;;5014634;28;20357;-79
2024/01/07 05:09:36;;;;;;;;;;;5.60;1.00;;;;;;5019905;28;19920;-79
2024/01/07 05:12:10;;;;;;;;;;;5.70;1.00;;;;;;5026157;28;19905;-82
2024/01/07 05:14:52;;;;;;;;;;;5.70;1.00;;;;;;5019319;28;19944;-79
2024/01/07 05:17:22;;;;;;;;;;;5.70;1.00;;;;;;5032275;28;19940;-77
2024/01/07 05:19:52;;;;;;;;;;;5.70;1.00;;;;;;5022402;28;19909;-76
2024/01/07 05:22:24;;;;;;;;;;;5.70;1.00;;;;;;5019190;28;19924;-76
2024/01/07 05:25:04;;;;;;;;;;;5.70;1.00;;;;;;5013714;28;19909;-77
2024/01/07 05:27:34;;;;;;;;;;;5.60;1.00;;;;;;5013756;28;19909;-77
2024/01/07 05:30:00;;;;;;;;;;;5.50;1.00;;;;;;5021805;28;19909;-77
2024/01/07 05:32:46;;;;;;;;;;;5.50;1.00;;;;;;5015477;28;19906;-77
2024/01/07 05:35:12;;;;;;;;;;;5.50;1.00;;;;;;5044360;28;19909;-78
2024/01/07 05:37:40;;;;;;;;;;;5.50;1.00;;;;;;5024688;28;19963;-76
2024/01/07 05:40:22;;;;;;;;;;;5.40;1.00;;;;;;5025993;28;19913;-77
2024/01/07 05:42:58;;;;;;;;;;;5.40;1.00;;;;;;5015723;28;19959;-77
2024/01/07 05:45:34;;;;;;;;;;;5.50;1.00;;;;;;5014597;28;19998;-77
2024/01/07 05:48:00;;;;;;;;;;;5.50;1.00;;;;;;5040797;28;19916;-77
2024/01/07 05:50:52;;;;;;;;;;;5.50;1.00;;;;;;5046206;28;19905;-76
2024/01/07 05:53:34;;;;;;;;;;;5.50;1.00;;;;;;5030189;28;19992;-77
2024/01/07 05:56:05;;;;;;;;;;;5.50;1.00;;;;;;5020378;28;19910;-76
2024/01/07 05:58:40;;;;;;;;;;;5.50;1.00;;;;;;5029265;28;19905;-76
2024/01/07 06:01:22;;;;;;;;;;;5.50;1.00;;;;;;5031959;28;20008;-77
2024/01/07 06:04:04;;;;;;;;;;;5.40;1.00;;;;;;5027819;28;19992;-77
2024/01/07 06:06:34;;;;;;;;;;;5.40;1.00;;;;;;5033100;28;19909;-77
2024/01/07 06:09:04;;;;;;;;;;;5.30;1.00;;;;;;5023563;28;19920;-76
2024/01/07 06:11:30;;;;;;;;;;;5.20;1.00;;;;;;5035719;28;19912;-76
2024/01/07 06:13:58;;;;;;;;;;;5.20;1.00;;;;;;5022790;28;19909;-76
2024/01/07 06:16:28;;;;;;;;;;;5.20;1.00;;;;;;5032749;28;19916;-77
2024/01/07 06:18:54;;;;;;;;;;;5.20;1.00;;;;;;5022313;28;19905;-76
2024/01/07 06:21:20;;;;;;;;;;;5.10;1.00;;;;;;5022588;28;19921;-77
2024/01/07 06:23:45;;;;;;;;;;;5.10;1.00;;;;;;5022896;28;20044;-77
2024/01/07 06:26:22;;;;;;;;;;;5.00;1.00;;;;;;5028692;28;19906;-77
2024/01/07 06:28:58;;;;;;;;;;;5.10;1.00;;;;;;5022520;28;19909;-76
2024/01/07 06:31:29;;;;;;;;;;;5.10;1.00;;;;;;5025224;28;19906;-77
2024/01/07 06:33:58;;;;;;;;;;;5.10;1.00;;;;;;5031071;28;19909;-79
2024/01/07 06:36:28;;;;;;;;;;;5.10;1.00;;;;;;5016459;28;19906;-79
2024/01/07 06:38:58;;;;;;;;;;;5.10;1.00;;;;;;5016748;28;19960;-79
2024/01/07 06:41:24;;;;;;;;;;;5.00;1.00;;;;;;5030564;28;19993;-77
2024/01/07 06:43:56;;;;;;;;;;;5.00;1.00;;;;;;5028239;28;20342;-77
2024/01/07 06:46:28;;;;;;;;;;;5.00;1.00;;;;;;5016446;28;20285;-78
2024/01/07 06:48:58;;;;;;;;;;;4.90;1.00;;;;;;5027965;28;19953;-79
2024/01/07 06:51:28;;;;;;;;;;;4.90;1.00;;;;;;5022570;28;19905;-79
2024/01/07 06:53:59;;;;;;;;;;;4.90;1.00;;;;;;5025405;28;20007;-78
2024/01/07 06:56:24;;;;;;;;;;;4.90;1.00;;;;;;5023224;28;20360;-80
2024/01/07 06:58:58;;;;;;;;;;;4.90;1.00;;;;;;5020856;28;19912;-79
2024/01/07 07:01:28;;;;;;;;;;;4.80;1.00;;;;;;5025356;28;19912;-78
2024/01/07 07:03:54;;;;;;;;;;;4.80;1.00;;;;;;5020351;28;19909;-79
2024/01/07 07:06:28;;;;;;;;;;;4.80;1.00;;;;;;5016045;28;19912;-79
2024/01/07 07:08:58;;;;;;;;;;;4.70;1.00;;;;;;5037142;28;19920;-80
2024/01/07 07:11:24;;;;;;;;;;;4.80;1.00;;;;;;5020871;28;19909;-79
2024/01/07 07:13:50;;;;;;;;;;;4.80;1.00;;;;;;5018920;28;19931;-79
2024/01/07 07:16:15;;;;;;;;;;;4.80;1.00;;;;;;5020544;28;19951;-78
2024/01/07 07:18:42;;;;;;;;;;;4.80;1.00;;;;;;5018614;28;19971;-79
2024/01/07 07:21:23;;;;;;;;;;;4.80;1.00;;;;;;5015257;28;20372;-82
2024/01/07 07:23:58;;;;;;;;;;;4.70;1.00;;;;;;5028125;28;20262;-83
2024/01/07 07:26:35;;;;;;;;;;;4.70;1.00;;;;;;5015200;28;19996;-83
2024/01/07 07:29:22;;;;;;;;;;;4.70;1.00;;;;;;5024966;28;20349;-82
2024/01/07 07:32:16;;;;;;;;;;;4.70;1.00;;;;;;5031463;28;19905;-82
2024/01/07 07:34:47;;;;;;;;;;;4.70;1.00;;;;;;5025235;28;19912;-76
2024/01/07 07:37:28;;;;;;;;;;;4.70;1.00;;;;;;5017877;28;20308;-76
2024/01/07 07:40:05;;;;;;;;;;;4.60;1.00;;;;;;5017749;28;19909;-76
2024/01/07 07:42:40;;;;;;;;;;;4.50;1.00;;;;;;5015860;28;19909;-76
2024/01/07 07:45:22;;;;;;;;;;;4.50;1.00;;;;;;5016362;28;19906;-81
2024/01/07 07:47:58;;;;;;;;;;;4.50;1.00;;;;;;5026717;28;19909;-81
2024/01/07 07:50:24;;;;;;;;;;;4.50;1.00;;;;;;5022057;28;19940;-77
2024/01/07 07:52:58;;;;;;;;;;;4.50;1.00;;;;;;5016696;28;19956;-77
2024/01/07 07:55:40;;;;;;;;;;;4.50;1.00;;;;;;5015375;28;19906;-77
2024/01/07 07:58:10;;;;;;;;;;;4.50;1.00;;;;;;5025070;28;19945;-78
2024/01/07 08:00:40;;;;;;;;;;;4.50;1.00;;;;;;5024849;28;19909;-78
2024/01/07 08:03:06;;;;;;;;;;;4.50;1.00;;;;;;5034221;28;19909;-80
2024/01/07 08:05:34;;;;;;;;;;;4.50;1.00;;;;;;5029268;28;19948;-79
2024/01/07 08:08:05;;;;;;;;;;;4.50;1.00;;;;;;5018570;28;19916;-80
2024/01/07 08:10:52;;;;;;;;;;;4.40;1.00;;;;;;5027251;28;19932;-79
2024/01/07 08:13:28;;;;;;;;;;;4.40;1.00;;;;;;5018248;28;19916;-79
2024/01/07 08:16:09;;;;;;;;;;;4.40;1.00;;;;;;5031139;28;19905;-86
2024/01/07 08:18:44;;;;;;;;;;;4.40;1.00;;;;;;5015536;28;19961;-80
2024/01/07 08:21:10;;;;;;;;;;;4.40;1.00;;;;;;5027411;28;19913;-80
2024/01/07 08:23:58;;;;;;;;;;;4.50;1.00;;;;;;5029751;28;19916;-80
2024/01/07 08:26:28;;;;;;;;;;;4.40;1.00;;;;;;5027996;28;20431;-80
2024/01/07 08:29:16;;;;;;;;;;;4.40;1.00;;;;;;5021646;28;19905;-80
2024/01/07 08:31:46;;;;;;;;;;;4.40;1.00;;;;;;5025019;28;19964;-79
2024/01/07 08:34:23;;;;;;;;;;;4.40;1.00;;;;;;5019090;28;19909;-78
2024/01/07 08:36:53;;;;;;;;;;;4.40;1.00;;;;;;5019617;28;19911;-78
2024/01/07 08:39:19;;;;;;;;;;;4.40;1.00;;;;;;5024810;28;19909;-78
2024/01/07 08:41:47;;;;;;;;;;;4.40;1.00;;;;;;5019072;28;19992;-78
2024/01/07 08:44:12;;;;;;;;;;;4.40;1.00;;;;;;5018741;28;19944;-78
2024/01/07 08:46:40;;;;;;;;;;;4.40;1.00;;;;;;5018706;28;19932;-78
2024/01/07 08:49:23;;;;;;;;;;;4.40;1.00;;;;;;5018023;28;19913;-80
2024/01/07 08:52:16;;;;;;;;;;;4.50;1.00;;;;;;5022603;28;19905;-81
2024/01/07 08:54:46;;;;;;;;;;;4.40;1.00;;;;;;5031510;28;19909;-81
2024/01/07 08:57:16;;;;;;;;;;;4.40;1.00;;;;;;5029498;28;19905;-81
2024/01/07 08:59:42;;;;;;;;;;;4.30;1.00;;;;;;5014100;28;19988;-81
2024/01/07 09:02:16;;;;;;;;;;;4.40;1.00;;;;;;5025324;28;19944;-81
2024/01/07 09:04:59;;;;;;;;;;;4.40;1.00;;;;;;5017238;28;19916;-78
2024/01/07 09:07:30;;;;;;;;;;;4.40;1.00;;;;;;5021741;28;19909;-78
2024/01/07 09:10:12;;;;;;;;;;;4.40;1.00;;;;;;5029809;28;19996;-79
2024/01/07 09:12:47;;;;;;;;;;;4.40;1.00;;;;;;5019470;28;19991;-78
2024/01/07 09:15:13;;;;;;;;;;;;;;;;;;5026024;28;19924;-79
2024/01/07 09:18:04;;;;;;;;;;;4.40;1.00;;;;;;5017975;28;19912;-78
2024/01/07 09:20:35;;;;;;;;;;;4.40;1.00;;;;;;5032805;28;20226;-78
2024/01/07 09:23:22;;;;;;;;;;;4.40;1.00;;;;;;5022049;28;19918;-78
2024/01/07 09:28:52;;;;;;;;;;;4.50;1.00;;;;;;5031989;28;20414;-79
2024/01/07 09:31:34;;;;;;;;;;;4.60;1.00;;;;;;5031054;28;19935;-78
2024/01/07 09:34:06;;;;;;;;;;;4.50;1.00;;;;;;5030647;28;19996;-79
2024/01/07 09:36:36;;;;;;;;;;;4.60;1.00;;;;;;5029484;28;20352;-80
2024/01/07 09:42:14;;;;;;;;;;;4.70;1.00;;;;;;5024820;28;20011;-78
2024/01/07 09:44:40;;;;;;;;;;;4.80;1.00;;;;;;5019643;28;20274;-77
2024/01/07 09:47:08;;;;;;;;;;;4.80;1.00;;;;;;5023910;28;19967;-77
2024/01/07 09:49:34;;;;;;;;;;;4.90;1.00;;;;;;5032841;28;19909;-79
2024/01/07 09:52:05;;;;;;;;;;;4.80;1.00;;;;;;5018166;28;19910;-79
2024/01/07 09:54:41;;;;;;;;;;;4.90;1.00;;;;;;5021039;28;19909;-79
2024/01/07 09:57:10;;;;;;;;;;;4.90;1.00;;;;;;5032194;28;20331;-79
2024/01/07 09:59:47;;;;;;;;;;;4.90;1.00;;;;;;5021559;28;19905;-79
2024/01/07 10:02:13;;;;;;;;;;;4.90;1.00;;;;;;5024784;28;20388;-78
2024/01/07 10:04:48;;;;;;;;;;;4.90;1.00;;;;;;5036987;28;19909;-78
2024/01/07 10:07:34;;;;;;;;;;;4.80;1.00;;;;;;5037126;28;19911;-78
2024/01/07 10:10:22;;;;;;;;;;;4.80;1.00;;;;;;5036850;28;19963;-78
2024/01/07 10:12:54;;;;;;;;;;;4.70;1.00;;;;;;5020666;28;20279;-77
2024/01/07 10:15:23;;;;;;;;;;;4.70;1.00;;;;;;5030533;28;20358;-79
2024/01/07 10:17:48;;;;;;;;;;;4.50;1.00;;;;;;5022578;28;19905;-76
2024/01/07 10:23:22;;;;;;;;;;;4.40;1.00;;;;;;5036518;28;19980;-79
2024/01/07 10:25:48;;;;;;;;;;;4.40;1.00;;;;;;5026875;28;19917;-76
2024/01/07 10:28:17;;;;;;;;;;;4.40;1.00;;;;;;5029962;28;19905;-79
2024/01/07 10:30:48;;;;;;;;;;;4.40;1.00;;;;;;5036611;28;19912;-74
2024/01/07 10:33:16;;;;;;;;;;;4.40;1.00;;;;;;5031386;28;19972;-77
2024/01/07 10:35:51;;;;;;;;;;;4.40;1.00;;;;;;5022612;28;19909;-77
2024/01/07 10:38:17;;;;;;;;;;;4.50;1.00;;;;;;5019308;28;20055;-76
2024/01/07 10:40:43;;;;;;;;;;;4.50;1.00;;;;;;5025112;28;19948;-76
2024/01/07 10:43:11;;;;;;;;;;;4.60;1.00;;;;;;5018843;28;20008;-76
2024/01/07 10:45:48;;;;;;;;;;;4.60;1.00;;;;;;5027449;28;19905;-76
2024/01/07 10:48:17;;;;;;;;;;;4.60;1.00;;;;;;5016593;28;20284;-77
2024/01/07 10:50:44;;;;;;;;;;;4.60;1.00;;;;;;5020611;28;19909;-77
2024/01/07 10:53:13;;;;;;;;;;;4.60;1.00;;;;;;5036610;28;19905;-76
2024/01/07 10:55:44;;;;;;;;;;;4.60;1.00;;;;;;5036889;28;19971;-77
2024/01/07 10:58:23;;;;;;;;;;;4.60;1.00;;;;;;5033328;28;19944;-77
2024/01/07 11:01:10;;;;;;;;;;;4.60;1.00;;;;;;5032477;28;19906;-77
2024/01/07 11:03:58;;;;;;;;;;;4.60;1.00;;;;;;5026929;28;19909;-89
2024/01/07 11:06:52;;;;;;;;;;;4.50;1.00;;;;;;5029378;28;19916;-77
2024/01/07 11:09:23;;;;;;;;;;;4.40;1.00;;;;;;5015958;28;19952;-79
2024/01/07 11:11:53;;;;;;;;;;;4.50;1.00;;;;;;5015930;28;19920;-79
2024/01/07 11:14:36;;;;;;;;;;;4.50;1.00;;;;;;5028755;28;19909;-79
2024/01/07 11:17:17;;;;;;;;;;;4.60;1.00;;;;;;5021631;28;19905;-79
2024/01/07 11:20:02;;;;;;;;;;;4.70;1.00;;;;;;5016873;28;20234;-78
2024/01/07 11:22:35;;;;;;;;;;;4.80;1.00;;;;;;5021821;28;19909;-78
2024/01/07 11:25:24;;;;;;;;;;;4.70;1.00;;;;;;5022015;28;19910;-78
2024/01/07 11:31:22;;;;;;;;;;;4.30;1.00;;;;;;5015386;28;19951;-78
2024/01/07 11:36:51;;;;;;;;;;;4.30;1.00;;;;;;5032802;28;19912;-77
2024/01/07 11:39:35;;;;;;;;;;;4.40;1.00;;;;;;5040018;28;19905;-77
2024/01/07 11:42:05;;;;;;;;;;;4.50;1.00;;;;;;5016768;28;19999;-77
2024/01/07 11:45:01;;;;;;;;;;;4.50;1.00;;;;;;5029107;28;19915;-77
2024/01/07 11:47:29;;;;;;;;;;;4.50;1.00;;;;;;5052695;28;19912;-77
2024/01/07 11:50:05;;;;;;;;;;;4.60;1.00;;;;;;5052565;28;19950;-77
2024/01/07 11:52:36;;;;;;;;;;;4.60;1.00;;;;;;5029489;28;19935;-77
2024/01/07 11:55:16;;;;;;;;;;;4.50;1.00;;;;;;5038124;28;19905;-77
2024/01/07 11:57:42;;;;;;;;;;;4.50;1.00;;;;;;5033704;28;19911;-77
2024/01/07 12:00:28;;;;;;;;;;;4.30;1.00;;;;;;5038493;28;19991;-76
2024/01/07 12:03:05;;;;;;;;;;;4.30;1.00;;;;;;5052820;28;19967;-77
2024/01/07 12:05:35;;;;;;;;;;;4.20;1.00;;;;;;5033149;28;19928;-76
2024/01/07 12:08:00;;;;;;;;;;;4.20;1.00;;;;;;5052820;28;20000;-77
2024/01/07 12:13:29;;;;;;;;;;;4.30;1.00;;;;;;5044412;28;19915;-77
2024/01/07 12:16:05;;;;;;;;;;;4.20;1.00;;;;;;5052385;28;19916;-77
2024/01/07 12:18:40;;;;;;;;;;;4.20;1.00;;;;;;5052546;28;19904;-77
2024/01/07 12:21:11;;;;;;;;;;;4.10;1.00;;;;;;5052788;28;20042;-76
2024/01/07 12:23:48;;;;;;;;;;;3.90;1.00;;;;;;5036892;28;19913;-77
2024/01/07 12:26:19;;;;;;;;;;;3.80;1.00;;;;;;5030484;28;19925;-77
2024/01/07 12:28:52;;;;;;;;;;;3.80;1.00;;;;;;5014424;28;19963;-77
2024/01/07 12:31:29;;;;;;;;;;;3.90;1.00;;;;;;5014973;28;19928;-76
2024/01/07 12:33:55;;;;;;;;;;;4.00;1.00;;;;;;5014477;28;20283;-77
2024/01/07 12:36:40;;;;;;;;;;;4.00;1.00;;;;;;5036238;28;20371;-76
2024/01/07 12:39:11;;;;;;;;;;;4.10;1.00;;;;;;5021125;28;19912;-77
2024/01/07 12:41:37;;;;;;;;;;;4.10;1.00;;;;;;5023474;28;19953;-77
2024/01/07 12:44:11;;;;;;;;;;;4.10;1.00;;;;;;5026887;28;20161;-77
2024/01/07 12:46:41;;;;;;;;;;;4.00;1.00;;;;;;5014445;28;19905;-76
2024/01/07 12:49:06;;;;;;;;;;;4.00;1.00;;;;;;5017703;28;19947;-76
2024/01/07 12:51:52;;;;;;;;;;;3.90;1.00;;;;;;5023577;28;19906;-78
2024/01/07 12:54:47;;;;;;;;;;;4.00;1.00;;;;;;5014504;28;19906;-78
2024/01/07 13:00:15;;;;;;;;;;;4.00;1.00;;;;;;5017045;28;19913;-78
2024/01/07 13:02:59;;;;;;;;;;;4.20;1.00;;;;;;5023532;28;19909;-78
2024/01/07 13:08:29;;;;;;;;;;;4.00;1.00;;;;;;5017014;28;19988;-79
2024/01/07 13:11:00;;;;;;;;;;;3.90;1.00;;;;;;5023473;28;19909;-78
2024/01/07 13:16:28;;;;;;;;;;;3.90;1.00;;;;;;5014215;28;19920;-78
2024/01/07 13:19:11;;;;;;;;;;;3.80;1.00;;;;;;5022942;28;19913;-78
2024/01/07 13:21:55;;;;;;;;;;;3.90;1.00;;;;;;5017893;28;20250;-78
2024/01/07 13:24:23;;;;;;;;;;;3.80;1.00;;;;;;5014848;28;19916;-78
2024/01/07 13:26:59;;;;;;;;;;;3.80;1.00;;;;;;5028022;28;19909;-78
2024/01/07 13:32:36;;;;;;;;;;;3.70;1.00;;;;;;5014068;28;19912;-78
2024/01/07 13:35:23;;;;;;;;;;;3.50;1.00;;;;;;5021127;28;19948;-78
2024/01/07 13:37:53;;;;;;;;;;;3.50;1.00;;;;;;5014298;28;20314;-79
2024/01/07 13:40:41;;;;;;;;;;;3.40;1.00;;;;;;5027342;28;19905;-78
2024/01/07 13:43:29;;;;;;;;;;;3.40;1.00;;;;;;5014053;28;19968;-84
2024/01/07 13:46:19;;;;;;;;;;;3.50;1.00;;;;;;5013583;28;19905;-83
2024/01/07 13:48:47;;;;;;;;;;;3.40;1.00;;;;;;5021240;28;19913;-75
2024/01/07 13:51:43;;;;;;;;;;;3.50;1.00;;;;;;5025616;28;19909;-78
2024/01/07 13:54:14;;;;;;;;;;;3.50;1.00;;;;;;5017748;28;19956;-77
2024/01/07 13:56:47;;;;;;;;;;;3.40;1.00;;;;;;5021356;28;19935;-77
2024/01/07 13:59:29;;;;;;;;;;;3.30;1.00;;;;;;5013767;28;19905;-77
2024/01/07 14:01:59;;;;;;;;;;;3.30;1.00;;;;;;5013756;28;19948;-79
2024/01/07 14:04:29;;;;;;;;;;;3.30;1.00;;;;;;5018437;28;19916;-78
2024/01/07 14:06:59;;;;;;;;;;;3.20;1.00;;;;;;5015212;28;19959;-74
2024/01/07 14:09:53;;;;;;;;;;;3.10;1.00;;;;;;5018756;28;19912;-75
2024/01/07 14:12:23;;;;;;;;;;;3.10;1.00;;;;;;5025871;28;19948;-75
2024/01/07 14:14:50;;;;;;;;;;;3.10;1.00;;;;;;5019182;28;19947;-75
2024/01/07 14:17:16;;;;;;;;;;;3.10;1.00;;;;;;5016640;28;19913;-75
2024/01/07 14:19:43;;;;;;;;;;;3.10;1.00;;;;;;5033633;28;20008;-75
2024/01/07 14:22:09;;;;;;;;;;;3.10;1.00;;;;;;5035994;28;20388;-74
2024/01/07 14:24:34;;;;;;;;;;;3.20;1.00;;;;;;5033527;28;19913;-74
2024/01/07 14:27:00;;;;;;;;;;;3.20;1.00;;;;;;5026771;28;20384;-73
2024/01/07 14:29:26;;;;;;;;;;;3.00;1.00;;;;;;5029985;28;19912;-73
2024/01/07 14:31:51;;;;;;;;;;;3.00;1.00;;;;;;5017087;28;19905;-73
2024/01/07 14:34:29;;;;;;;;;;;2.90;1.00;;;;;;5026797;28;19906;-73
2024/01/07 14:37:00;;;;;;;;;;;2.90;1.00;;;;;;5017154;28;19905;-76
2024/01/07 14:39:26;;;;;;;;;;;2.80;1.00;;;;;;5025980;28;20384;-77
2024/01/07 14:42:00;;;;;;;;;;;2.70;1.00;;;;;;5024778;28;19912;-76
2024/01/07 14:44:25;;;;;;;;;;;2.70;1.00;;;;;;5022127;28;19995;-76
2024/01/07 14:46:59;;;;;;;;;;;2.70;1.00;;;;;;5021994;28;20007;-74
2024/01/07 14:49:25;;;;;;;;;;;2.50;1.00;;;;;;5017084;28;19909;-76
2024/01/07 14:51:59;;;;;;;;;;;2.30;1.00;;;;;;5027803;28;19912;-75
2024/01/07 14:54:24;;;;;;;;;;;2.30;1.00;;;;;;5029097;28;19912;-75
2024/01/07 14:56:50;;;;;;;;;;;2.20;1.00;;;;;;5028658;28;19909;-75
2024/01/07 14:59:16;;;;;;;;;;;2.10;1.00;;;;;;5027000;28;19949;-75
2024/01/07 15:01:47;;;;;;;;;;;2.10;1.00;;;;;;5016887;28;19945;-75
2024/01/07 15:04:12;;;;;;;;;;;2.00;1.00;;;;;;5015871;28;19916;-75
2024/01/07 15:06:41;;;;;;;;;;;2.00;1.00;;;;;;5026903;28;19905;-76
2024/01/07 15:09:17;;;;;;;;;;;2.00;1.00;;;;;;5035860;28;19955;-76
2024/01/07 15:11:59;;;;;;;;;;;2.00;1.00;;;;;;5019954;28;19923;-76
2024/01/07 15:14:29;;;;;;;;;;;1.90;1.00;;;;;;5035286;28;19912;-77
2024/01/07 15:16:54;;;;;;;;;;;1.80;1.00;;;;;;5027896;28;19909;-77
2024/01/07 15:19:23;;;;;;;;;;;1.80;1.00;;;;;;5031484;28;19913;-78
2024/01/07 15:22:05;;;;;;;;;;;1.70;1.00;;;;;;5035267;28;19960;-77
2024/01/07 15:24:30;;;;;;;;;;;1.60;1.00;;;;;;5031864;28;19914;-76
2024/01/07 15:26:57;;;;;;;;;;;1.60;1.00;;;;;;5028055;28;19909;-75
2024/01/07 15:29:22;;;;;;;;;;;1.50;1.00;;;;;;5020924;28;19913;-75
2024/01/07 15:31:48;;;;;;;;;;;1.40;1.00;;;;;;5031192;28;20395;-77
2024/01/07 15:34:17;;;;;;;;;;;1.40;1.00;;;;;;5014772;28;19939;-76
2024/01/07 15:36:47;;;;;;;;;;;1.30;1.00;;;;;;5025996;28;19909;-75
2024/01/07 15:39:23;;;;;;;;;;;1.30;1.00;;;;;;5019878;28;19956;-75
2024/01/07 15:41:48;;;;;;;;;;;1.30;1.00;;;;;;5020700;28;19909;-76
2024/01/07 15:44:23;;;;;;;;;;;1.30;1.00;;;;;;5020967;28;19913;-76
2024/01/07 15:46:53;;;;;;;;;;;1.30;1.00;;;;;;5022270;28;19905;-76
2024/01/07 15:49:23;;;;;;;;;;;1.30;1.00;;;;;;5035997;28;19916;-76
2024/01/07 15:52:11;;;;;;;;;;;1.30;1.00;;;;;;5021995;28;19905;-75
2024/01/07 15:54:36;;;;;;;;;;;1.30;1.00;;;;;;5024020;28;20348;-76
2024/01/07 15:57:05;;;;;;;;;;;1.20;1.00;;;;;;5020507;28;19936;-76